Time;durP1;ratioP1;P1;durP2;ratioP2;P2;SDS_P1;SDS_P2;PMS_P1;PMS_P2;Temp;Humidity;BMP_temperature;BMP_pressure;BME280_temperature;BME280_humidity;BME280_pressure;Samples;Min_cycle;Max_cycle;Signal;HPM_P1;HPM_P2
2024/01/15 00:00:56;;;;;;;3.45;3.22;;;;;;;;;;5024018;28;20500;-83
2024/01/15 00:03:29;;;;;;;2.67;2.47;;;;;;;;;;5025843;28;20037;-86
2024/01/15 00:06:05;;;;;;;5.45;4.07;;;;;;;;;;5023369;28;20118;-85
2024/01/15 00:08:34;;;;;;;5.65;2.78;;;;;;;;;;5022437;28;21095;-83
2024/01/15 00:11:05;;;;;;;4.17;2.03;;;;;;;;;;5022930;28;20025;-82
2024/01/15 00:13:41;;;;;;;2.47;2.33;;;;;;;;;;5022872;28;20028;-84
2024/01/15 00:16:15;;;;;;;2.78;2.53;;;;;;;;;;5023709;28;20030;-83
2024/01/15 00:18:44;;;;;;;7.32;2.42;;;;;;;;;;5022573;28;20107;-83
2024/01/15 00:21:15;;;;;;;5.47;3.88;;;;;;;;;;5023181;28;20053;-84
2024/01/15 00:23:47;;;;;;;11.90;3.97;;;;;;;;;;5022527;28;20036;-83
2024/01/15 00:26:15;;;;;;;4.18;3.55;;;;;;;;;;5023654;28;20105;-83
2024/01/15 00:28:45;;;;;;;3.70;3.28;;;;;;;;;;5027159;28;20032;-82
2024/01/15 00:31:18;;;;;;;1.98;1.88;;;;;;;;;;5029398;28;20067;-83
2024/01/15 00:33:47;;;;;;;5.47;4.00;;;;;;;;;;5027833;28;20036;-83
2024/01/15 00:36:16;;;;;;;3.80;3.28;;;;;;;;;;5024393;28;20033;-83
2024/01/15 00:38:49;;;;;;;2.95;2.70;;;;;;;;;;5023619;28;20381;-83
2024/01/15 00:41:22;;;;;;;5.50;3.65;;;;;;;;;;5024369;28;20052;-82
2024/01/15 00:43:49;;;;;;;8.02;3.00;;;;;;;;;;5027459;28;20030;-80
2024/01/15 00:46:15;;;;;;;4.35;4.00;;;;;;;;;;5026028;28;20029;-85
2024/01/15 00:48:41;;;;;;;3.05;2.70;;;;;;;;;;5024393;28;20652;-83
2024/01/15 00:51:06;;;;;;;2.65;2.15;;;;;;;;;;5026015;28;20096;-82
2024/01/15 00:53:43;;;;;;;3.63;3.33;;;;;;;;;;5026496;28;20029;-81
2024/01/15 00:56:12;;;;;;;7.05;3.58;;;;;;;;;;5024096;28;20037;-81
2024/01/15 00:58:53;;;;;;;2.70;2.00;;;;;;;;;;5023010;28;20035;-83
2024/01/15 01:01:19;;;;;;;1.38;1.27;;;;;;;;;;5030580;28;20359;-82
2024/01/15 01:03:47;;;;;;;1.35;1.33;;;;;;;;;;5027139;28;20465;-84
2024/01/15 01:06:24;;;;;;;2.53;2.33;;;;;;;;;;5026820;28;20068;-85
2024/01/15 01:08:50;;;;;;;1.83;1.67;;;;;;;;;;5028822;28;20041;-84
2024/01/15 01:11:16;;;;;;;4.32;2.88;;;;;;;;;;5024490;28;20136;-83
2024/01/15 01:13:42;;;;;;;5.35;3.13;;;;;;;;;;5027246;28;20081;-82
2024/01/15 01:16:08;;;;;;;2.35;1.70;;;;;;;;;;5022521;28;20029;-81
2024/01/15 01:18:36;;;;;;;2.50;2.20;;;;;;;;;;5026655;28;20021;-82
2024/01/15 01:21:02;;;;;;;2.75;2.55;;;;;;;;;;5025977;28;20029;-81
2024/01/15 01:23:28;;;;;;;1.67;1.58;;;;;;;;;;5027291;28;20022;-82
2024/01/15 01:25:56;;;;;;;3.28;3.03;;;;;;;;;;5018852;28;20037;-83
2024/01/15 01:28:21;;;;;;;3.15;2.92;;;;;;;;;;5026790;28;20498;-83
2024/01/15 01:30:50;;;;;;;5.78;3.38;;;;;;;;;;5026780;28;20033;-82
2024/01/15 01:33:16;;;;;;;3.77;3.47;;;;;;;;;;5022839;28;20059;-83
2024/01/15 01:35:41;;;;;;;6.88;2.15;;;;;;;;;;5025008;28;20100;-81
2024/01/15 01:38:07;;;;;;;2.72;2.05;;;;;;;;;;5020730;28;20041;-82
2024/01/15 01:40:35;;;;;;;4.53;1.80;;;;;;;;;;5021846;28;20053;-82
2024/01/15 01:43:04;;;;;;;2.85;2.65;;;;;;;;;;5028404;28;20033;-84
2024/01/15 01:45:29;;;;;;;1.27;1.27;;;;;;;;;;5025945;28;20036;-82
2024/01/15 01:47:58;;;;;;;2.60;1.48;;;;;;;;;;5027804;28;20358;-81
2024/01/15 01:50:26;;;;;;;5.05;2.60;;;;;;;;;;5025154;28;20151;-84
2024/01/15 01:52:55;;;;;;;4.15;3.63;;;;;;;;;;5024632;28;20033;-82
2024/01/15 01:55:27;;;;;;;2.42;2.28;;;;;;;;;;5025366;28;20025;-80
2024/01/15 01:57:56;;;;;;;2.45;2.25;;;;;;;;;;5026115;28;20029;-83
2024/01/15 02:00:22;;;;;;;13.45;3.50;;;;;;;;;;5021797;28;20037;-81
2024/01/15 02:02:48;;;;;;;6.90;2.78;;;;;;;;;;5019751;28;20042;-83
2024/01/15 02:05:21;;;;;;;4.93;3.75;;;;;;;;;;5026004;28;20040;-82
2024/01/15 02:07:47;;;;;;;6.05;4.35;;;;;;;;;;5023916;28;20576;-82
2024/01/15 02:10:13;;;;;;;5.07;4.68;;;;;;;;;;5028989;28;20083;-85
2024/01/15 02:12:56;;;;;;;3.45;3.13;;;;;;;;;;5026120;28;20032;-86
2024/01/15 02:15:34;;;;;;;2.63;1.30;;;;;;;;;;5021596;28;20041;-83
2024/01/15 02:18:05;;;;;;;3.17;2.88;;;;;;;;;;5026477;28;20045;-86
2024/01/15 02:20:41;;;;;;;3.60;3.03;;;;;;;;;;5024531;28;20029;-83
2024/01/15 02:23:13;;;;;;;10.77;3.47;;;;;;;;;;5026944;28;20099;-84
2024/01/15 02:25:59;;;;;;;5.25;2.28;;;;;;;;;;5018097;28;20025;-83
2024/01/15 02:28:35;;;;;;;4.38;2.40;;;;;;;;;;5015634;28;20071;-82
2024/01/15 02:31:00;;;;;;;2.03;1.48;;;;;;;;;;5022142;28;20040;-83
2024/01/15 02:33:31;;;;;;;3.17;2.95;;;;;;;;;;5020388;28;20025;-82
2024/01/15 02:35:57;;;;;;;4.78;2.25;;;;;;;;;;5022196;28;20029;-82
2024/01/15 02:38:38;;;;;;;;;;;;;;;;;;;;;
2024/01/15 02:41:14;;;;;;;6.30;3.75;;;;;;;;;;5023927;28;20046;-84
2024/01/15 02:43:47;;;;;;;3.30;2.70;;;;;;;;;;5020769;28;20150;-83
2024/01/15 02:46:18;;;;;;;3.55;2.10;;;;;;;;;;5016713;28;20025;-83
2024/01/15 02:48:44;;;;;;;9.20;4.32;;;;;;;;;;5023271;28;20033;-84
2024/01/15 02:51:16;;;;;;;1.85;1.75;;;;;;;;;;5026639;28;20025;-82
2024/01/15 02:53:53;;;;;;;2.90;2.65;;;;;;;;;;5023894;28;20955;-83
2024/01/15 02:56:24;;;;;;;3.92;3.42;;;;;;;;;;5018624;28;20026;-84
2024/01/15 02:58:55;;;;;;;2.08;1.90;;;;;;;;;;5020620;28;20107;-82
2024/01/15 03:01:37;;;;;;;1.92;1.83;;;;;;;;;;5019961;28;20041;-83
2024/01/15 03:04:13;;;;;;;2.13;1.42;;;;;;;;;;5022816;28;20433;-83
2024/01/15 03:06:44;;;;;;;6.28;2.05;;;;;;;;;;5016745;28;20033;-83
2024/01/15 03:09:11;;;;;;;8.50;5.28;;;;;;;;;;5019881;28;20580;-83
2024/01/15 03:11:43;;;;;;;1.50;1.40;;;;;;;;;;5017504;28;20029;-83
2024/01/15 03:14:24;;;;;;;1.80;1.65;;;;;;;;;;5019777;28;20087;-87
2024/01/15 03:17:05;;;;;;;3.25;2.80;;;;;;;;;;5024361;28;20126;-85
2024/01/15 03:19:34;;;;;;;3.30;3.00;;;;;;;;;;5028219;28;20109;-83
2024/01/15 03:22:08;;;;;;;1.63;1.52;;;;;;;;;;5018887;28;20037;-85
2024/01/15 03:24:40;;;;;;;5.88;2.55;;;;;;;;;;5023494;28;20029;-87
2024/01/15 03:27:27;;;;;;;;;;;;;;;;;;;;;
2024/01/15 03:30:06;;;;;;;2.22;2.00;;;;;;;;;;5024217;28;20037;-86
2024/01/15 03:32:39;;;;;;;1.48;1.38;;;;;;;;;;5021248;28;20032;-82
2024/01/15 03:35:07;;;;;;;3.95;3.35;;;;;;;;;;5018893;28;20025;-83
2024/01/15 03:37:33;;;;;;;2.60;2.45;;;;;;;;;;5020872;28;20120;-85
2024/01/15 03:40:07;;;;;;;2.95;2.75;;;;;;;;;;5021721;28;20504;-84
2024/01/15 03:42:35;;;;;;;2.83;2.28;;;;;;;;;;5020806;28;20064;-83
2024/01/15 03:45:06;;;;;;;4.35;2.45;;;;;;;;;;5019858;28;20091;-83
2024/01/15 03:47:46;;;;;;;;;;;;;;;;;;;;;
2024/01/15 03:50:15;;;;;;;2.63;2.42;;;;;;;;;;5021096;28;20033;-84
2024/01/15 03:53:01;;;;;;;2.25;2.05;;;;;;;;;;5017547;28;20046;-85
2024/01/15 03:55:32;;;;;;;4.60;3.33;;;;;;;;;;5019028;28;20083;-83
2024/01/15 03:58:11;;;;;;;2.90;2.55;;;;;;;;;;5021207;28;20109;-85
2024/01/15 04:00:50;;;;;;;2.25;2.15;;;;;;;;;;5025941;28;20076;-86
2024/01/15 04:03:27;;;;;;;4.43;3.67;;;;;;;;;;5024678;28;20033;-86
2024/01/15 04:05:57;;;;;;;1.88;1.67;;;;;;;;;;5023427;28;20018;-84
2024/01/15 04:08:27;;;;;;;1.40;1.30;;;;;;;;;;5019867;28;20037;-86
2024/01/15 04:11:06;;;;;;;;;;;;;;;;;;;;;
2024/01/15 04:17:06;;;;;;;1.70;1.60;;;;;;;;;;5023088;28;20037;-84
2024/01/15 04:19:34;;;;;;;2.75;1.40;;;;;;;;;;5024937;28;20087;-84
2024/01/15 04:22:05;;;;;;;2.72;1.52;;;;;;;;;;5022118;28;20041;-84
2024/01/15 04:24:34;;;;;;;1.15;1.13;;;;;;;;;;5023374;28;20033;-84
2024/01/15 04:27:02;;;;;;;4.13;2.33;;;;;;;;;;5025031;28;20125;-82
2024/01/15 04:29:37;;;;;;;2.08;1.65;;;;;;;;;;5023278;28;20155;-87
2024/01/15 04:32:02;;;;;;;4.72;1.88;;;;;;;;;;5023557;28;20421;-83
2024/01/15 04:34:38;;;;;;;3.33;1.70;;;;;;;;;;5019346;28;20021;-84
2024/01/15 04:37:07;;;;;;;3.80;2.58;;;;;;;;;;5025041;28;20055;-84
2024/01/15 04:39:35;;;;;;;1.02;1.02;;;;;;;;;;5024479;28;20055;-85
2024/01/15 04:42:24;;;;;;;1.40;1.20;;;;;;;;;;5024503;28;20030;-85
2024/01/15 04:45:22;;;;;;;2.05;1.95;;;;;;;;;;5028906;28;20065;-87
2024/01/15 04:47:54;;;;;;;2.67;2.47;;;;;;;;;;5027939;28;20477;-88
2024/01/15 04:50:30;;;;;;;3.05;2.75;;;;;;;;;;5019438;28;20424;-83
2024/01/15 04:52:58;;;;;;;1.73;1.63;;;;;;;;;;5019201;28;20035;-87
2024/01/15 04:55:23;;;;;;;1.60;1.50;;;;;;;;;;5031537;28;20409;-83
2024/01/15 04:58:04;;;;;;;2.08;1.88;;;;;;;;;;5020972;28;20029;-84
2024/01/15 05:00:32;;;;;;;1.45;1.25;;;;;;;;;;5031565;28;20034;-83
2024/01/15 05:02:58;;;;;;;6.38;1.45;;;;;;;;;;5032510;28;20033;-83
2024/01/15 05:05:30;;;;;;;12.07;4.32;;;;;;;;;;5028557;28;20030;-82
2024/01/15 05:07:56;;;;;;;1.52;1.42;;;;;;;;;;5027996;28;20424;-82
2024/01/15 05:10:22;;;;;;;2.08;1.90;;;;;;;;;;5027075;28;20495;-82
2024/01/15 05:13:07;;;;;;;1.30;1.25;;;;;;;;;;5025535;28;20049;-86
2024/01/15 05:15:38;;;;;;;0.65;0.65;;;;;;;;;;5024137;28;20531;-83
2024/01/15 05:18:06;;;;;;;1.08;1.05;;;;;;;;;;5024661;28;20034;-83
2024/01/15 05:20:34;;;;;;;1.05;1.05;;;;;;;;;;5025111;28;20037;-79
2024/01/15 05:23:02;;;;;;;2.85;2.58;;;;;;;;;;5026935;28;20045;-82
2024/01/15 05:25:32;;;;;;;1.90;1.60;;;;;;;;;;5025021;28;20453;-83
2024/01/15 05:27:58;;;;;;;11.30;3.38;;;;;;;;;;5028802;28;20037;-83
2024/01/15 05:30:29;;;;;;;15.55;4.70;;;;;;;;;;5028133;28;20059;-82
2024/01/15 05:33:03;;;;;;;1.88;1.77;;;;;;;;;;5030668;28;20021;-83
2024/01/15 05:35:28;;;;;;;7.80;2.30;;;;;;;;;;5027034;28;20036;-81
2024/01/15 05:37:54;;;;;;;2.20;2.03;;;;;;;;;;5019098;28;20037;-81
2024/01/15 05:40:19;;;;;;;1.33;0.98;;;;;;;;;;5028845;28;20054;-79
2024/01/15 05:42:45;;;;;;;2.67;1.73;;;;;;;;;;5029179;28;20444;-81
2024/01/15 05:45:11;;;;;;;3.42;3.13;;;;;;;;;;5025582;28;20430;-84
2024/01/15 05:47:43;;;;;;;6.22;2.90;;;;;;;;;;5023555;28;20120;-83
2024/01/15 05:50:17;;;;;;;23.17;1.90;;;;;;;;;;5029396;28;20029;-85
2024/01/15 05:52:45;;;;;;;3.95;2.78;;;;;;;;;;5025960;28;20028;-83
2024/01/15 05:55:13;;;;;;;2.85;2.65;;;;;;;;;;5029509;28;20029;-83
2024/01/15 05:57:39;;;;;;;1.70;1.60;;;;;;;;;;5032909;28;20802;-79
2024/01/15 06:00:23;;;;;;;5.68;2.40;;;;;;;;;;5029593;28;20049;-82
2024/01/15 06:02:57;;;;;;;1.20;0.93;;;;;;;;;;5026129;28;20033;-82
2024/01/15 06:05:22;;;;;;;3.08;1.75;;;;;;;;;;5023541;28;20034;-84
2024/01/15 06:07:48;;;;;;;3.72;3.42;;;;;;;;;;5020368;28;20127;-82
2024/01/15 06:10:13;;;;;;;2.92;1.85;;;;;;;;;;5017989;28;20037;-80
2024/01/15 06:12:39;;;;;;;3.08;2.03;;;;;;;;;;5025145;28;20033;-80
2024/01/15 06:15:05;;;;;;;3.70;2.78;;;;;;;;;;5022419;28;20030;-81
2024/01/15 06:17:31;;;;;;;4.07;3.40;;;;;;;;;;5022851;28;20491;-81
2024/01/15 06:19:57;;;;;;;3.05;2.85;;;;;;;;;;5025575;28;20125;-83
2024/01/15 06:22:22;;;;;;;2.00;1.90;;;;;;;;;;5026394;28;20446;-84
2024/01/15 06:24:48;;;;;;;5.03;3.55;;;;;;;;;;5022816;28;20053;-82
2024/01/15 06:27:16;;;;;;;1.63;1.52;;;;;;;;;;5024830;28;20022;-83
2024/01/15 06:29:46;;;;;;;13.38;3.25;;;;;;;;;;5029806;28;20060;-80
2024/01/15 06:32:11;;;;;;;6.25;4.47;;;;;;;;;;5028591;28;20464;-84
2024/01/15 06:34:37;;;;;;;2.30;2.15;;;;;;;;;;5027651;28;20053;-81
2024/01/15 06:37:02;;;;;;;1.45;1.35;;;;;;;;;;5029153;28;20036;-83
2024/01/15 06:42:15;;;;;;;6.13;2.80;;;;;;;;;;5027192;28;20091;-80
2024/01/15 06:44:40;;;;;;;2.67;2.05;;;;;;;;;;5028816;28;20048;-84
2024/01/15 06:47:14;;;;;;;2.50;2.25;;;;;;;;;;5029875;28;20065;-80
2024/01/15 06:49:40;;;;;;;1.48;1.38;;;;;;;;;;5030650;28;20025;-82
2024/01/15 06:52:06;;;;;;;2.17;1.98;;;;;;;;;;5028486;28;20370;-81
2024/01/15 06:54:31;;;;;;;5.15;2.95;;;;;;;;;;5025238;28;20029;-82
2024/01/15 06:56:57;;;;;;;4.80;2.50;;;;;;;;;;5021778;28;20440;-81
2024/01/15 06:59:22;;;;;;;4.28;1.98;;;;;;;;;;5022112;28;20510;-82
2024/01/15 07:01:48;;;;;;;7.65;4.80;;;;;;;;;;5015518;28;20026;-81
2024/01/15 07:04:13;;;;;;;2.13;2.03;;;;;;;;;;5017333;28;20029;-79
2024/01/15 07:06:38;;;;;;;7.97;3.33;;;;;;;;;;5022565;28;20060;-81
2024/01/15 07:09:04;;;;;;;7.82;3.33;;;;;;;;;;5016778;28;20794;-80
2024/01/15 07:11:29;;;;;;;4.65;2.70;;;;;;;;;;5011427;28;20034;-79
2024/01/15 07:14:00;;;;;;;3.10;2.72;;;;;;;;;;5024123;28;20045;-81
2024/01/15 07:16:26;;;;;;;5.30;3.38;;;;;;;;;;5018785;28;20026;-80
2024/01/15 07:18:51;;;;;;;3.78;3.42;;;;;;;;;;5015203;28;20037;-82
2024/01/15 07:21:16;;;;;;;4.75;3.20;;;;;;;;;;5018805;28;20140;-83
2024/01/15 07:23:42;;;;;;;6.35;3.75;;;;;;;;;;5021621;28;20036;-82
2024/01/15 07:26:07;;;;;;;8.10;6.30;;;;;;;;;;5017903;28;20432;-82
2024/01/15 07:28:33;;;;;;;10.70;4.85;;;;;;;;;;5018460;28;20056;-82
2024/01/15 07:31:01;;;;;;;6.22;4.68;;;;;;;;;;5020440;28;20029;-80
2024/01/15 07:33:26;;;;;;;5.78;3.97;;;;;;;;;;5026441;28;20454;-83
2024/01/15 07:35:54;;;;;;;5.35;2.70;;;;;;;;;;5022845;28;20057;-81
2024/01/15 07:38:20;;;;;;;4.60;2.72;;;;;;;;;;5027375;28;20487;-81
2024/01/15 07:40:49;;;;;;;1.85;1.13;;;;;;;;;;5028436;28;20133;-81
2024/01/15 07:43:14;;;;;;;2.33;1.45;;;;;;;;;;5028791;28;20026;-81
2024/01/15 07:45:40;;;;;;;2.70;2.33;;;;;;;;;;5026950;28;20449;-81
2024/01/15 07:48:06;;;;;;;2.28;1.98;;;;;;;;;;5026735;28;20026;-81
2024/01/15 07:50:31;;;;;;;2.58;2.40;;;;;;;;;;5028488;28;20057;-81
2024/01/15 07:52:59;;;;;;;8.63;2.33;;;;;;;;;;5029901;28;20465;-82
2024/01/15 07:55:25;;;;;;;5.80;4.03;;;;;;;;;;5028996;28;20021;-80
2024/01/15 07:57:52;;;;;;;1.45;1.38;;;;;;;;;;5028824;28;20087;-82
2024/01/15 08:00:18;;;;;;;3.13;1.98;;;;;;;;;;5028677;28;20369;-79
2024/01/15 08:02:44;;;;;;;2.65;2.25;;;;;;;;;;5025728;28;20041;-81
2024/01/15 08:05:09;;;;;;;6.60;2.97;;;;;;;;;;5028612;28;20041;-80
2024/01/15 08:07:34;;;;;;;2.63;2.17;;;;;;;;;;5029488;28;20556;-80
2024/01/15 08:10:00;;;;;;;2.25;2.05;;;;;;;;;;5028350;28;20041;-81
2024/01/15 08:12:25;;;;;;;1.20;1.08;;;;;;;;;;5026808;28;20473;-82
2024/01/15 08:14:50;;;;;;;2.28;2.08;;;;;;;;;;5026455;28;20397;-81
2024/01/15 08:17:16;;;;;;;2.92;2.58;;;;;;;;;;5024328;28;20052;-81
2024/01/15 08:19:42;;;;;;;3.38;3.08;;;;;;;;;;5023618;28;20497;-81
2024/01/15 08:22:08;;;;;;;23.27;5.93;;;;;;;;;;5028632;28;20029;-80
2024/01/15 08:24:33;;;;;;;9.02;6.85;;;;;;;;;;5029288;28;20528;-79
2024/01/15 08:26:59;;;;;;;5.53;4.75;;;;;;;;;;5027843;28;20044;-79
2024/01/15 08:29:24;;;;;;;8.20;5.22;;;;;;;;;;5024390;28;20115;-81
2024/01/15 08:31:50;;;;;;;14.65;7.57;;;;;;;;;;5027931;28;20486;-80
2024/01/15 08:34:16;;;;;;;5.35;4.85;;;;;;;;;;5019506;28;20025;-79
2024/01/15 08:36:41;;;;;;;10.32;3.63;;;;;;;;;;5024028;28;20114;-80
2024/01/15 08:39:08;;;;;;;7.75;4.45;;;;;;;;;;5027903;28;20049;-81
2024/01/15 08:41:34;;;;;;;6.47;5.18;;;;;;;;;;5027493;28;20050;-80
2024/01/15 08:44:00;;;;;;;6.68;2.95;;;;;;;;;;5027375;28;20029;-79
2024/01/15 08:46:25;;;;;;;3.45;3.03;;;;;;;;;;5031398;28;20033;-80
2024/01/15 08:48:51;;;;;;;13.60;4.93;;;;;;;;;;5027732;28;20037;-80
2024/01/15 08:51:18;;;;;;;3.55;3.25;;;;;;;;;;5027539;28;20482;-80
2024/01/15 08:53:46;;;;;;;4.10;3.80;;;;;;;;;;5031410;28;20025;-79
2024/01/15 08:56:11;;;;;;;4.25;3.13;;;;;;;;;;5027347;28;20481;-80
2024/01/15 08:58:36;;;;;;;6.80;4.30;;;;;;;;;;5031800;28;20027;-81
2024/01/15 09:01:02;;;;;;;11.20;4.57;;;;;;;;;;5030713;28;20029;-80
2024/01/15 09:03:30;;;;;;;5.53;3.88;;;;;;;;;;5029869;28;20040;-80
2024/01/15 09:05:58;;;;;;;3.50;3.17;;;;;;;;;;5030970;28;20487;-81
2024/01/15 09:08:24;;;;;;;10.30;5.30;;;;;;;;;;5027959;28;20112;-80
2024/01/15 09:10:50;;;;;;;5.85;5.25;;;;;;;;;;5032084;28;20025;-80
2024/01/15 09:13:16;;;;;;;4.03;3.63;;;;;;;;;;5028152;28;20424;-80
2024/01/15 09:15:42;;;;;;;10.95;5.45;;;;;;;;;;5028105;28;20033;-79
2024/01/15 09:18:08;;;;;;;3.33;3.03;;;;;;;;;;5028347;28;20458;-80
2024/01/15 09:20:33;;;;;;;7.07;3.95;;;;;;;;;;5031422;28;20036;-81
2024/01/15 09:22:58;;;;;;;6.13;5.53;;;;;;;;;;5019950;28;20132;-79
2024/01/15 09:25:24;;;;;;;5.25;3.55;;;;;;;;;;5022736;28;20048;-80
2024/01/15 09:27:49;;;;;;;7.45;5.10;;;;;;;;;;5019827;28;20060;-80
2024/01/15 09:30:15;;;;;;;9.05;2.35;;;;;;;;;;5025521;28;20136;-79
2024/01/15 09:32:40;;;;;;;9.48;5.85;;;;;;;;;;5030155;28;20021;-80
2024/01/15 09:35:06;;;;;;;6.40;4.75;;;;;;;;;;5030300;28;20052;-80
2024/01/15 09:37:32;;;;;;;15.45;7.28;;;;;;;;;;5028817;28;20021;-80
2024/01/15 09:39:57;;;;;;;17.73;7.72;;;;;;;;;;5029605;28;20034;-81
2024/01/15 09:42:24;;;;;;;13.00;7.18;;;;;;;;;;5031555;28;20108;-81
2024/01/15 09:44:51;;;;;;;10.07;5.25;;;;;;;;;;5030160;28;20022;-81
2024/01/15 09:47:18;;;;;;;5.90;5.40;;;;;;;;;;5031591;28;20461;-79
2024/01/15 09:49:44;;;;;;;5.85;4.35;;;;;;;;;;5032393;28;20030;-79
2024/01/15 09:52:11;;;;;;;5.10;4.53;;;;;;;;;;5031989;28;20056;-81
2024/01/15 09:54:38;;;;;;;4.97;2.90;;;;;;;;;;5032786;28;20029;-81
2024/01/15 09:57:04;;;;;;;6.63;3.80;;;;;;;;;;5030733;28;20032;-79
2024/01/15 09:59:31;;;;;;;5.65;3.78;;;;;;;;;;5033041;28;20025;-81
2024/01/15 10:01:58;;;;;;;5.35;4.20;;;;;;;;;;5027466;28;20030;-80
2024/01/15 10:04:24;;;;;;;6.07;4.15;;;;;;;;;;5029136;28;20819;-80
2024/01/15 10:06:51;;;;;;;5.95;3.83;;;;;;;;;;5031232;28;20112;-80
2024/01/15 10:09:17;;;;;;;5.45;3.53;;;;;;;;;;5030598;28;20025;-80
2024/01/15 10:11:43;;;;;;;5.90;4.47;;;;;;;;;;5028431;28;20091;-81
2024/01/15 10:14:13;;;;;;;7.05;6.18;;;;;;;;;;5030895;28;20096;-83
2024/01/15 10:16:42;;;;;;;4.95;4.07;;;;;;;;;;5028759;28;20393;-80
2024/01/15 10:19:08;;;;;;;9.52;5.53;;;;;;;;;;5030443;28;20033;-80
2024/01/15 10:21:37;;;;;;;14.73;7.55;;;;;;;;;;5027792;28;20117;-82
2024/01/15 10:24:03;;;;;;;14.88;8.27;;;;;;;;;;5027960;28;20033;-80
2024/01/15 10:26:30;;;;;;;19.05;9.73;;;;;;;;;;5030803;28;20481;-80
2024/01/15 10:28:55;;;;;;;7.63;5.90;;;;;;;;;;5026983;28;20112;-81
2024/01/15 10:31:21;;;;;;;6.75;5.85;;;;;;;;;;5025279;28;20108;-79
2024/01/15 10:33:50;;;;;;;5.65;4.15;;;;;;;;;;5028396;28;20031;-81
2024/01/15 10:36:16;;;;;;;7.13;5.60;;;;;;;;;;5027384;28;20029;-81
2024/01/15 10:38:43;;;;;;;5.88;5.15;;;;;;;;;;5025563;28;20026;-81
2024/01/15 10:41:09;;;;;;;10.48;8.73;;;;;;;;;;5015139;28;20069;-81
2024/01/15 10:43:34;;;;;;;14.15;9.38;;;;;;;;;;5024352;28;20025;-80
2024/01/15 10:46:00;;;;;;;6.32;4.95;;;;;;;;;;5025080;28;20116;-82
2024/01/15 10:48:28;;;;;;;11.77;7.18;;;;;;;;;;5016119;28;20034;-80
2024/01/15 10:50:53;;;;;;;7.85;6.53;;;;;;;;;;5015590;28;20470;-82
2024/01/15 10:53:20;;;;;;;10.02;7.82;;;;;;;;;;5019850;28;20068;-80
2024/01/15 10:55:48;;;;;;;9.98;8.10;;;;;;;;;;5018967;28;20059;-80
2024/01/15 10:58:15;;;;;;;8.23;7.10;;;;;;;;;;5022970;28;20029;-81
2024/01/15 11:00:41;;;;;;;12.23;8.77;;;;;;;;;;5026040;28;20033;-80
2024/01/15 11:03:07;;;;;;;11.02;9.90;;;;;;;;;;5024120;28;20040;-79
2024/01/15 11:05:42;;;;;;;23.70;11.43;;;;;;;;;;5028500;28;20097;-81
2024/01/15 11:08:08;;;;;;;11.85;10.63;;;;;;;;;;5026073;28;20051;-79
2024/01/15 11:10:51;;;;;;;18.58;10.43;;;;;;;;;;5020647;28;20088;-83
2024/01/15 11:13:40;;;;;;;17.70;9.18;;;;;;;;;;5025265;28;20036;-82
2024/01/15 11:16:11;;;;;;;10.38;9.10;;;;;;;;;;5022608;28;20029;-82
2024/01/15 11:18:40;;;;;;;12.27;9.23;;;;;;;;;;5027427;28;20033;-82
2024/01/15 11:21:18;;;;;;;11.98;8.23;;;;;;;;;;5025136;28;20060;-83
2024/01/15 11:23:51;;;;;;;12.38;10.07;;;;;;;;;;5024103;28;20056;-79
2024/01/15 11:26:38;;;;;;;9.73;8.00;;;;;;;;;;5026526;28;20474;-80
2024/01/15 11:29:29;;;;;;;14.18;9.82;;;;;;;;;;5023970;28;20448;-83
2024/01/15 11:31:54;;;;;;;20.23;9.32;;;;;;;;;;5023478;28;20033;-83
2024/01/15 11:34:57;;;;;;;14.40;8.88;;;;;;;;;;5026496;28;20060;-80
2024/01/15 11:37:24;;;;;;;5.90;5.18;;;;;;;;;;5026406;28;20033;-81
2024/01/15 11:39:54;;;;;;;16.67;8.77;;;;;;;;;;5027030;28;20026;-81
2024/01/15 11:42:21;;;;;;;24.85;9.52;;;;;;;;;;5027317;28;20040;-79
2024/01/15 11:44:46;;;;;;;8.95;6.38;;;;;;;;;;5024809;28;20478;-81
2024/01/15 11:47:13;;;;;;;12.00;7.75;;;;;;;;;;5023738;28;20021;-80
2024/01/15 11:49:50;;;;;;;11.68;9.10;;;;;;;;;;5022685;28;20061;-83
2024/01/15 11:52:18;;;;;;;7.05;5.40;;;;;;;;;;5022031;28;20025;-82
2024/01/15 11:55:03;;;;;;;10.05;7.97;;;;;;;;;;5026832;28;20444;-82
2024/01/15 11:57:45;;;;;;;12.50;6.93;;;;;;;;;;5024991;28;20381;-83
2024/01/15 12:00:12;;;;;;;12.57;6.82;;;;;;;;;;5011978;28;20041;-83
2024/01/15 12:02:41;;;;;;;8.43;7.50;;;;;;;;;;5026339;28;20025;-83
2024/01/15 12:05:07;;;;;;;7.32;5.68;;;;;;;;;;5028588;28;20079;-82
2024/01/15 12:07:33;;;;;;;10.75;6.60;;;;;;;;;;5027559;28;20029;-81
2024/01/15 12:10:01;;;;;;;8.13;4.93;;;;;;;;;;5026515;28;20044;-85
2024/01/15 12:12:46;;;;;;;12.43;6.70;;;;;;;;;;5027546;28;20477;-81
2024/01/15 12:15:11;;;;;;;14.63;9.25;;;;;;;;;;5025531;28;20081;-83
2024/01/15 12:17:38;;;;;;;7.90;4.65;;;;;;;;;;5028819;28;20025;-83
2024/01/15 12:20:04;;;;;;;12.40;7.95;;;;;;;;;;5027722;28;20483;-81
2024/01/15 12:22:30;;;;;;;17.45;9.43;;;;;;;;;;5031925;28;20486;-82
2024/01/15 12:24:55;;;;;;;9.05;4.25;;;;;;;;;;5030816;28;20056;-83
2024/01/15 12:27:21;;;;;;;6.32;4.97;;;;;;;;;;5029193;28;20029;-82
2024/01/15 12:29:47;;;;;;;8.77;5.10;;;;;;;;;;5029483;28;20113;-83
2024/01/15 12:32:12;;;;;;;8.18;5.63;;;;;;;;;;5028010;28;20029;-83
2024/01/15 12:34:38;;;;;;;11.27;4.03;;;;;;;;;;5031611;28;20037;-83
2024/01/15 12:37:04;;;;;;;10.38;7.22;;;;;;;;;;5030671;28;20109;-83
2024/01/15 12:39:29;;;;;;;6.82;5.57;;;;;;;;;;5030571;28;20026;-84
2024/01/15 12:41:55;;;;;;;9.23;5.80;;;;;;;;;;5030572;28;20041;-83
2024/01/15 12:44:20;;;;;;;11.25;5.15;;;;;;;;;;5029864;28;20065;-82
2024/01/15 12:46:48;;;;;;;5.75;4.78;;;;;;;;;;5031288;28;20029;-81
2024/01/15 12:49:16;;;;;;;10.27;4.90;;;;;;;;;;5030069;28;20044;-82
2024/01/15 12:51:41;;;;;;;7.97;5.22;;;;;;;;;;5030909;28;20037;-83
2024/01/15 12:54:07;;;;;;;9.55;5.95;;;;;;;;;;5030837;28;20026;-81
2024/01/15 12:56:32;;;;;;;7.93;4.43;;;;;;;;;;5031069;28;20044;-82
2024/01/15 12:59:00;;;;;;;8.65;5.45;;;;;;;;;;5028057;28;20022;-84
2024/01/15 13:01:32;;;;;;;20.25;4.20;;;;;;;;;;5031599;28;20037;-82
2024/01/15 13:04:00;;;;;;;11.35;4.95;;;;;;;;;;5027917;28;20068;-82
2024/01/15 13:06:36;;;;;;;10.95;5.65;;;;;;;;;;5029685;28;20037;-82
2024/01/15 13:09:10;;;;;;;4.32;3.03;;;;;;;;;;5028875;28;20044;-82
2024/01/15 13:11:38;;;;;;;7.60;5.32;;;;;;;;;;5029644;28;20029;-83
2024/01/15 13:14:14;;;;;;;7.60;6.40;;;;;;;;;;5029844;28;20520;-82
2024/01/15 13:16:41;;;;;;;5.50;3.65;;;;;;;;;;5027870;28;20116;-82
2024/01/15 13:19:13;;;;;;;15.38;5.28;;;;;;;;;;5030363;28;20037;-81
2024/01/15 13:21:42;;;;;;;3.35;2.33;;;;;;;;;;5030768;28;20473;-81
2024/01/15 13:24:08;;;;;;;5.20;2.67;;;;;;;;;;5028711;28;20033;-82
2024/01/15 13:26:33;;;;;;;12.25;4.45;;;;;;;;;;5028112;28;20061;-82
2024/01/15 13:29:01;;;;;;;6.28;2.40;;;;;;;;;;5029564;28;20060;-83
2024/01/15 13:31:27;;;;;;;9.38;2.97;;;;;;;;;;5027220;28;20494;-82
2024/01/15 13:33:53;;;;;;;4.30;2.42;;;;;;;;;;5029376;28;20033;-82
2024/01/15 13:36:18;;;;;;;2.85;2.58;;;;;;;;;;5030111;28;20060;-82
2024/01/15 13:38:44;;;;;;;2.78;2.53;;;;;;;;;;5029174;28;20426;-83
2024/01/15 13:41:09;;;;;;;4.15;2.22;;;;;;;;;;5026100;28;20188;-82
2024/01/15 13:43:34;;;;;;;6.15;2.38;;;;;;;;;;5030138;28;20080;-82
2024/01/15 13:46:04;;;;;;;2.72;2.47;;;;;;;;;;5028838;28;20088;-82
2024/01/15 13:48:30;;;;;;;3.60;2.47;;;;;;;;;;5031728;28;20112;-83
2024/01/15 13:50:55;;;;;;;2.20;1.63;;;;;;;;;;5031446;28;20116;-83
2024/01/15 13:53:21;;;;;;;2.20;1.58;;;;;;;;;;5030121;28;20124;-82
2024/01/15 13:55:47;;;;;;;6.00;2.15;;;;;;;;;;5028228;28;20032;-83
2024/01/15 13:58:13;;;;;;;5.90;3.35;;;;;;;;;;5029042;28;20481;-80
2024/01/15 14:00:39;;;;;;;3.35;2.28;;;;;;;;;;5026632;28;20037;-83
2024/01/15 14:03:05;;;;;;;5.05;2.83;;;;;;;;;;5028386;28;20021;-82
2024/01/15 14:05:30;;;;;;;11.02;4.05;;;;;;;;;;5023382;28;20034;-81
2024/01/15 14:07:56;;;;;;;2.72;1.90;;;;;;;;;;5022340;28;20033;-81
2024/01/15 14:10:21;;;;;;;6.72;2.03;;;;;;;;;;5026089;28;20393;-82
2024/01/15 14:12:47;;;;;;;2.95;2.25;;;;;;;;;;5023137;28;20022;-83
2024/01/15 14:15:12;;;;;;;4.97;2.70;;;;;;;;;;5024420;28;20030;-82
2024/01/15 14:17:38;;;;;;;6.07;2.75;;;;;;;;;;5027115;28;20041;-83
2024/01/15 14:20:05;;;;;;;2.78;1.98;;;;;;;;;;5025744;28;20084;-81
2024/01/15 14:22:30;;;;;;;3.67;1.83;;;;;;;;;;5025916;28;20088;-81
2024/01/15 14:24:56;;;;;;;7.90;5.35;;;;;;;;;;5029077;28;20389;-81
2024/01/15 14:27:21;;;;;;;18.02;10.50;;;;;;;;;;5028418;28;20033;-82
2024/01/15 14:29:47;;;;;;;7.35;4.43;;;;;;;;;;5028482;28;20032;-82
2024/01/15 14:32:12;;;;;;;5.57;3.95;;;;;;;;;;5029856;28;20104;-82
2024/01/15 14:34:37;;;;;;;5.15;2.60;;;;;;;;;;5024876;28;20033;-82
2024/01/15 14:37:03;;;;;;;3.92;2.05;;;;;;;;;;5031155;28;20490;-82
2024/01/15 14:39:28;;;;;;;1.90;1.80;;;;;;;;;;5029380;28;20402;-82
2024/01/15 14:41:54;;;;;;;2.38;2.17;;;;;;;;;;5031142;28;20041;-82
2024/01/15 14:44:19;;;;;;;3.10;2.17;;;;;;;;;;5029621;28;20032;-82
2024/01/15 14:46:45;;;;;;;6.20;3.40;;;;;;;;;;5028319;28;20029;-82
2024/01/15 14:49:11;;;;;;;3.88;2.40;;;;;;;;;;5029424;28;20027;-82
2024/01/15 14:51:36;;;;;;;1.00;1.00;;;;;;;;;;5026720;28;20017;-80
2024/01/15 14:54:02;;;;;;;2.40;1.63;;;;;;;;;;5022836;28;20069;-80
2024/01/15 14:56:28;;;;;;;6.47;2.78;;;;;;;;;;5025883;28;20088;-81
2024/01/15 14:58:54;;;;;;;1.92;1.83;;;;;;;;;;5025331;28;20025;-80